Time;durP1;ratioP1;P1;durP2;ratioP2;P2;SDS_P1;SDS_P2;PMS_P1;PMS_P2;Temp;Humidity;BMP_temperature;BMP_pressure;BME280_temperature;BME280_humidity;BME280_pressure;Samples;Min_cycle;Max_cycle;Signal;HPM_P1;HPM_P2
2023/06/06 00:01:49;;;;;;;7.60;6.40;;;11.20;99.90;;;;;;5049023;28;20120;-30
2023/06/06 00:04:15;;;;;;;10.15;6.25;;;11.20;99.90;;;;;;5048344;28;20086;-30
2023/06/06 00:06:44;;;;;;;9.02;6.75;;;11.20;99.90;;;;;;5053560;28;20449;-30
2023/06/06 00:09:13;;;;;;;10.48;6.88;;;11.10;99.90;;;;;;5053269;28;20036;-30
2023/06/06 00:11:39;;;;;;;11.02;6.63;;;11.10;99.90;;;;;;5053748;28;20047;-31
2023/06/06 00:14:09;;;;;;;9.98;6.32;;;11.10;99.90;;;;;;5039110;28;20033;-31
2023/06/06 00:16:35;;;;;;;7.07;5.53;;;11.00;99.90;;;;;;5042599;28;20029;-31
2023/06/06 00:19:02;;;;;;;8.50;6.20;;;11.00;99.90;;;;;;5053030;28;20040;-31
2023/06/06 00:21:28;;;;;;;10.32;6.72;;;10.90;99.90;;;;;;5053304;28;20040;-31
2023/06/06 00:23:55;;;;;;;9.80;6.95;;;10.90;99.90;;;;;;5053482;28;20040;-31
2023/06/06 00:26:21;;;;;;;11.18;6.85;;;10.90;99.90;;;;;;5045024;28;20462;-30
2023/06/06 00:28:47;;;;;;;9.75;6.97;;;10.90;99.90;;;;;;5053099;28;20043;-30
2023/06/06 00:31:13;;;;;;;8.15;6.30;;;10.90;99.90;;;;;;5053520;28;20409;-30
2023/06/06 00:33:39;;;;;;;9.25;6.60;;;10.90;99.90;;;;;;5051047;28;20036;-30
2023/06/06 00:36:05;;;;;;;9.80;6.47;;;10.80;99.90;;;;;;5048925;28;20496;-31
2023/06/06 00:38:31;;;;;;;9.73;6.85;;;10.80;99.90;;;;;;5057211;28;20485;-31
2023/06/06 00:40:57;;;;;;;9.80;6.70;;;10.80;99.90;;;;;;5056958;28;20040;-30
2023/06/06 00:43:23;;;;;;;9.07;6.63;;;10.80;99.90;;;;;;5056007;28;20115;-31
2023/06/06 00:45:49;;;;;;;9.95;6.85;;;10.80;99.90;;;;;;5057102;28;20032;-31
2023/06/06 00:48:16;;;;;;;10.50;7.30;;;10.70;99.90;;;;;;5054936;28;20028;-31
2023/06/06 00:50:42;;;;;;;9.23;7.47;;;10.80;99.90;;;;;;5051681;28;20422;-31
2023/06/06 00:53:10;;;;;;;10.52;7.22;;;10.70;99.90;;;;;;5056911;28;20044;-31
2023/06/06 00:55:37;;;;;;;10.07;7.15;;;10.70;99.90;;;;;;5054123;28;20090;-30
2023/06/06 00:58:04;;;;;;;8.65;6.47;;;10.70;99.90;;;;;;5037563;28;20033;-30
2023/06/06 01:00:32;;;;;;;8.88;7.07;;;10.70;99.90;;;;;;5053454;28;20082;-32
2023/06/06 01:03:01;;;;;;;13.30;7.53;;;10.70;99.90;;;;;;5074417;28;20055;-31
2023/06/06 01:05:26;;;;;;;11.43;7.47;;;10.70;99.90;;;;;;5056826;28;20485;-31
2023/06/06 01:07:53;;;;;;;11.52;7.85;;;10.60;99.90;;;;;;5046388;28;20069;-31
2023/06/06 01:10:20;;;;;;;10.10;7.90;;;10.70;99.90;;;;;;5056622;28;20036;-32
2023/06/06 01:12:58;;;;;;;10.98;8.13;;;10.60;99.90;;;;;;5056262;28;20041;-31
2023/06/06 01:15:45;;;;;;;9.90;7.05;;;10.60;99.90;;;;;;5052340;28;20059;-31
2023/06/06 01:18:12;;;;;;;9.57;7.30;;;10.70;99.90;;;;;;5053104;28;20069;-31
2023/06/06 01:20:42;;;;;;;13.07;7.95;;;10.60;99.90;;;;;;5050070;28;20504;-32
2023/06/06 01:23:13;;;;;;;11.32;7.95;;;10.60;99.90;;;;;;5042465;28;20078;-31
2023/06/06 01:25:41;;;;;;;15.57;8.13;;;10.60;99.90;;;;;;5046454;28;20029;-31
2023/06/06 01:28:12;;;;;;;9.88;7.90;;;10.60;99.90;;;;;;5055702;28;20048;-31
2023/06/06 01:30:40;;;;;;;10.85;7.80;;;10.50;99.90;;;;;;5056470;28;20047;-31
2023/06/06 01:33:23;;;;;;;13.63;8.93;;;10.50;99.90;;;;;;5056146;28;20533;-31
2023/06/06 01:36:02;;;;;;;12.63;8.60;;;10.50;99.90;;;;;;5056479;28;20033;-31
2023/06/06 01:38:35;;;;;;;11.88;8.43;;;10.50;99.90;;;;;;5045309;28;20500;-31
2023/06/06 01:41:03;;;;;;;13.40;8.20;;;10.50;99.90;;;;;;5034124;28;20174;-31
2023/06/06 01:43:31;;;;;;;11.35;8.38;;;10.40;99.90;;;;;;5074076;28;20047;-31
2023/06/06 01:45:58;;;;;;;12.40;9.25;;;10.40;99.90;;;;;;5056703;28;20028;-30
2023/06/06 01:48:24;;;;;;;12.02;8.45;;;10.40;99.90;;;;;;5056541;28;20040;-31
2023/06/06 01:50:50;;;;;;;14.68;9.48;;;10.30;99.90;;;;;;5038991;28;20028;-32
2023/06/06 01:53:16;;;;;;;13.90;10.35;;;10.30;99.90;;;;;;5053287;28;20052;-31
2023/06/06 01:55:42;;;;;;;12.43;9.57;;;10.30;99.90;;;;;;5055803;28;20374;-31
2023/06/06 01:58:08;;;;;;;12.60;9.55;;;10.20;99.90;;;;;;5055392;28;20040;-31
2023/06/06 02:00:34;;;;;;;10.77;9.50;;;10.20;99.90;;;;;;5055932;28;20044;-31
2023/06/06 02:03:01;;;;;;;15.45;10.57;;;10.20;99.90;;;;;;5055574;28;20036;-30
2023/06/06 02:05:27;;;;;;;13.15;10.80;;;10.20;99.90;;;;;;5051057;28;20044;-30
2023/06/06 02:07:53;;;;;;;17.75;12.93;;;10.20;99.90;;;;;;5046661;28;20107;-31
2023/06/06 02:10:19;;;;;;;17.35;11.95;;;10.20;99.90;;;;;;5055037;28;20389;-30
2023/06/06 02:12:45;;;;;;;14.40;11.63;;;10.20;99.90;;;;;;5055319;28;20033;-32
2023/06/06 02:15:13;;;;;;;16.10;12.20;;;10.10;99.90;;;;;;5047014;28;20116;-31
2023/06/06 02:17:39;;;;;;;16.67;12.02;;;10.10;99.90;;;;;;5055149;28;20172;-31
2023/06/06 02:20:07;;;;;;;15.15;12.02;;;10.10;99.90;;;;;;5055867;28;20051;-31
2023/06/06 02:22:33;;;;;;;17.70;12.18;;;10.10;99.90;;;;;;5055214;28;20044;-32
2023/06/06 02:24:59;;;;;;;21.15;13.38;;;10.10;99.90;;;;;;5055683;28;20036;-31
2023/06/06 02:27:26;;;;;;;19.70;12.73;;;10.10;99.90;;;;;;5055557;28;20036;-30
2023/06/06 02:29:51;;;;;;;15.55;12.77;;;10.10;99.90;;;;;;5054955;28;20029;-31
2023/06/06 02:32:17;;;;;;;15.77;11.77;;;10.00;99.90;;;;;;5054543;28;20041;-30
2023/06/06 02:34:43;;;;;;;15.57;11.82;;;10.00;99.90;;;;;;5054757;28;20094;-31
2023/06/06 02:37:09;;;;;;;17.65;11.73;;;10.00;99.90;;;;;;5051875;28;20116;-30
2023/06/06 02:39:35;;;;;;;15.60;11.25;;;10.00;99.90;;;;;;5050309;28;20037;-31
2023/06/06 02:42:02;;;;;;;16.38;10.25;;;10.00;99.90;;;;;;5054421;28;20553;-30
2023/06/06 02:44:30;;;;;;;15.18;9.90;;;10.00;99.90;;;;;;5054564;28;20036;-31
2023/06/06 02:46:57;;;;;;;15.68;10.30;;;10.00;99.90;;;;;;5044643;28;20042;-30
2023/06/06 02:49:23;;;;;;;15.82;9.60;;;10.00;99.90;;;;;;5049515;28;20076;-30
2023/06/06 02:51:49;;;;;;;15.65;10.15;;;10.00;99.90;;;;;;5052360;28;20040;-32
2023/06/06 02:54:15;;;;;;;15.77;10.07;;;10.00;99.90;;;;;;5054674;28;20102;-31
2023/06/06 02:56:41;;;;;;;15.68;9.57;;;9.90;99.90;;;;;;5037503;28;20040;-31
2023/06/06 02:59:07;;;;;;;10.20;8.27;;;9.90;99.90;;;;;;5054535;28;20071;-30
2023/06/06 03:01:35;;;;;;;13.38;9.13;;;9.90;99.90;;;;;;5054511;28;20047;-31
2023/06/06 03:04:01;;;;;;;14.45;9.80;;;9.90;99.90;;;;;;5053132;28;20048;-30
2023/06/06 03:06:28;;;;;;;13.63;8.18;;;9.90;99.90;;;;;;5054358;28;20040;-30
2023/06/06 03:08:57;;;;;;;12.32;8.80;;;9.90;99.90;;;;;;5048549;28;20041;-31
2023/06/06 03:11:25;;;;;;;12.10;8.70;;;9.90;99.90;;;;;;5054700;28;20397;-31
2023/06/06 03:13:51;;;;;;;14.95;9.48;;;9.90;99.90;;;;;;5054508;28;20041;-31
2023/06/06 03:16:17;;;;;;;15.35;9.60;;;9.80;99.90;;;;;;5054292;28;20048;-30
2023/06/06 03:18:46;;;;;;;12.35;8.55;;;9.80;99.90;;;;;;5047175;28;20047;-32
2023/06/06 03:21:14;;;;;;;15.63;9.52;;;9.90;99.90;;;;;;5054355;28;20552;-31
2023/06/06 03:23:40;;;;;;;11.48;8.70;;;9.90;99.90;;;;;;5053725;28;20085;-31
2023/06/06 03:26:06;;;;;;;13.15;9.10;;;9.90;99.90;;;;;;5054200;28;20499;-30
2023/06/06 03:28:32;;;;;;;15.95;9.35;;;9.80;99.90;;;;;;5053904;28;20137;-31
2023/06/06 03:30:57;;;;;;;16.98;8.95;;;9.90;99.90;;;;;;5052415;28;20036;-30
2023/06/06 03:33:23;;;;;;;13.25;8.98;;;9.90;99.90;;;;;;5052752;28;20041;-30
2023/06/06 03:35:50;;;;;;;13.65;8.57;;;9.90;99.90;;;;;;5054225;28;20568;-32
2023/06/06 03:38:15;;;;;;;12.27;8.80;;;9.90;99.90;;;;;;5046695;28;20498;-32
2023/06/06 03:40:41;;;;;;;17.10;9.80;;;9.90;99.90;;;;;;5034140;28;20051;-32
2023/06/06 03:43:07;;;;;;;15.65;9.75;;;9.90;99.90;;;;;;5050526;28;20037;-31
2023/06/06 03:45:33;;;;;;;14.20;9.20;;;9.90;99.90;;;;;;5045329;28;20037;-31
2023/06/06 03:47:59;;;;;;;16.58;8.75;;;9.90;99.90;;;;;;5053836;28;20036;-31
2023/06/06 03:50:25;;;;;;;15.57;8.70;;;9.90;99.90;;;;;;5054097;28;20451;-30
2023/06/06 03:52:51;;;;;;;16.95;9.55;;;9.90;99.90;;;;;;5052105;28;20036;-31
2023/06/06 03:55:16;;;;;;;14.13;8.55;;;10.00;99.90;;;;;;5054067;28;20037;-31
2023/06/06 03:57:42;;;;;;;14.80;8.80;;;10.00;99.90;;;;;;5037360;28;20508;-30
2023/06/06 04:00:13;;;;;;;16.15;8.27;;;10.00;99.90;;;;;;5053020;28;20076;-31
2023/06/06 04:02:46;;;;;;;14.95;9.52;;;10.10;99.90;;;;;;5054116;28;20412;-31
2023/06/06 04:05:12;;;;;;;13.43;8.88;;;10.10;99.90;;;;;;5053597;28;20040;-30
2023/06/06 04:07:39;;;;;;;14.90;9.18;;;10.10;99.90;;;;;;5054953;28;20040;-30
2023/06/06 04:10:05;;;;;;;11.32;8.45;;;10.20;99.90;;;;;;5036741;28;20033;-31
2023/06/06 04:12:31;;;;;;;14.23;8.90;;;10.10;99.90;;;;;;5057561;28;20040;-31
2023/06/06 04:14:57;;;;;;;16.73;9.05;;;10.20;99.90;;;;;;5057705;28;20045;-30
2023/06/06 04:17:24;;;;;;;14.93;8.88;;;10.30;99.90;;;;;;5057776;28;20090;-30
2023/06/06 04:19:50;;;;;;;16.80;9.20;;;10.30;99.90;;;;;;5057112;28;20032;-31
2023/06/06 04:22:17;;;;;;;14.45;8.48;;;10.30;99.90;;;;;;5051239;28;20049;-31
2023/06/06 04:24:43;;;;;;;15.50;9.50;;;10.40;99.90;;;;;;5057757;28;20101;-31
2023/06/06 04:27:09;;;;;;;11.43;8.05;;;10.40;99.90;;;;;;5043378;28;20040;-30
2023/06/06 04:29:35;;;;;;;13.20;9.02;;;10.40;99.90;;;;;;5051648;28;20124;-31
2023/06/06 04:32:04;;;;;;;13.00;8.27;;;10.50;99.90;;;;;;5057271;28;20041;-31
2023/06/06 04:34:31;;;;;;;13.77;8.00;;;10.50;99.90;;;;;;5057340;28;20497;-31
2023/06/06 04:37:06;;;;;;;14.27;9.13;;;10.60;99.90;;;;;;5057195;28;20037;-31
2023/06/06 04:39:38;;;;;;;12.40;8.65;;;10.60;99.90;;;;;;5054909;28;20044;-31
2023/06/06 04:42:05;;;;;;;15.32;8.35;;;10.70;99.90;;;;;;5057265;28;20060;-31
2023/06/06 04:44:32;;;;;;;15.00;8.52;;;10.80;99.90;;;;;;5054213;28;20390;-31
2023/06/06 04:47:01;;;;;;;13.88;8.68;;;10.80;99.90;;;;;;5050700;28;20488;-31
2023/06/06 04:49:35;;;;;;;16.77;9.05;;;10.80;99.90;;;;;;5056809;28;20087;-31
2023/06/06 04:52:10;;;;;;;11.23;8.68;;;10.90;99.90;;;;;;5057178;28;20068;-31
2023/06/06 04:54:40;;;;;;;13.07;9.27;;;11.00;99.90;;;;;;5057132;28;20033;-31
2023/06/06 04:57:15;;;;;;;15.68;9.32;;;11.00;99.90;;;;;;5056453;28;20040;-31
2023/06/06 04:59:44;;;;;;;15.40;9.77;;;11.10;99.90;;;;;;5051042;28;20044;-31
2023/06/06 05:02:10;;;;;;;14.48;9.40;;;11.10;99.90;;;;;;5052551;28;20040;-31
2023/06/06 05:04:37;;;;;;;18.75;10.63;;;11.20;99.90;;;;;;5040358;28;20401;-31
2023/06/06 05:07:03;;;;;;;14.07;10.27;;;11.30;99.90;;;;;;5046910;28;20068;-31
2023/06/06 05:09:28;;;;;;;14.95;10.23;;;11.30;99.90;;;;;;5048787;28;20036;-32
2023/06/06 05:11:56;;;;;;;15.93;9.65;;;11.40;99.90;;;;;;5043428;28;20402;-31
2023/06/06 05:14:25;;;;;;;16.52;10.20;;;11.40;99.90;;;;;;5053001;28;20112;-31
2023/06/06 05:16:53;;;;;;;15.93;9.90;;;11.50;99.90;;;;;;5039312;28;20036;-31
2023/06/06 05:19:20;;;;;;;18.08;10.80;;;11.60;99.90;;;;;;5051723;28;20033;-31
2023/06/06 05:21:47;;;;;;;16.27;10.85;;;11.70;99.90;;;;;;5053213;28;20183;-31
2023/06/06 05:24:14;;;;;;;15.23;10.60;;;11.70;99.90;;;;;;5041955;28;20520;-31
2023/06/06 05:26:40;;;;;;;15.27;10.40;;;11.80;99.90;;;;;;5051828;28;20047;-31
2023/06/06 05:29:06;;;;;;;18.40;10.80;;;11.90;99.90;;;;;;5051863;28;20411;-32
2023/06/06 05:31:33;;;;;;;16.13;11.43;;;11.90;99.90;;;;;;5052222;28;20039;-32
2023/06/06 05:33:59;;;;;;;16.30;10.25;;;12.00;99.90;;;;;;5047719;28;20045;-31
2023/06/06 05:36:25;;;;;;;14.77;10.07;;;12.10;99.90;;;;;;5043630;28;20565;-32
2023/06/06 05:38:51;;;;;;;15.07;10.55;;;12.20;99.90;;;;;;5047154;28;20119;-31
2023/06/06 05:41:18;;;;;;;18.10;11.13;;;12.30;99.90;;;;;;5046843;28;20103;-31
2023/06/06 05:43:47;;;;;;;13.02;10.13;;;12.40;99.90;;;;;;5048075;28;20523;-32
2023/06/06 05:46:14;;;;;;;13.45;10.10;;;12.50;99.90;;;;;;5047233;28;20032;-31
2023/06/06 05:48:40;;;;;;;15.68;10.35;;;12.60;99.90;;;;;;5054234;28;20067;-32
2023/06/06 05:51:07;;;;;;;13.90;10.60;;;12.70;99.90;;;;;;5046497;28;20033;-31
2023/06/06 05:53:33;;;;;;;17.75;12.05;;;12.80;99.90;;;;;;5043935;28;20041;-32
2023/06/06 05:55:59;;;;;;;15.68;11.48;;;12.80;99.90;;;;;;5045402;28;20037;-32
2023/06/06 05:58:25;;;;;;;15.05;11.85;;;13.00;99.90;;;;;;5053285;28;20258;-32
2023/06/06 06:00:51;;;;;;;16.15;11.98;;;13.00;99.90;;;;;;5047413;28;20037;-33
2023/06/06 06:03:17;;;;;;;16.92;12.65;;;13.10;99.90;;;;;;5054139;28;20032;-31
2023/06/06 06:05:43;;;;;;;19.08;12.90;;;13.20;99.90;;;;;;5055710;28;20043;-32
2023/06/06 06:08:09;;;;;;;19.95;13.55;;;13.20;99.90;;;;;;5055391;28;20041;-32
2023/06/06 06:10:37;;;;;;;17.58;12.50;;;13.30;99.90;;;;;;5055691;28;20043;-31
2023/06/06 06:13:03;;;;;;;21.52;14.73;;;13.40;99.90;;;;;;5070978;28;20079;-32
2023/06/06 06:15:30;;;;;;;19.00;13.20;;;13.60;99.90;;;;;;5055431;28;20505;-32
2023/06/06 06:17:56;;;;;;;18.83;13.75;;;13.60;99.90;;;;;;5054160;28;20177;-33
2023/06/06 06:20:21;;;;;;;18.55;14.05;;;13.80;99.90;;;;;;5055170;28;20102;-32
2023/06/06 06:22:47;;;;;;;16.10;12.38;;;13.80;99.90;;;;;;5053274;28;20537;-33
2023/06/06 06:25:14;;;;;;;15.57;12.23;;;13.90;99.90;;;;;;5035297;28;20036;-32
2023/06/06 06:27:41;;;;;;;16.73;13.48;;;14.00;99.90;;;;;;5053592;28;20466;-31
2023/06/06 06:30:09;;;;;;;16.25;11.93;;;14.00;99.90;;;;;;5054707;28;20045;-32
2023/06/06 06:32:37;;;;;;;21.23;12.65;;;14.20;99.90;;;;;;5044063;28;20036;-32
2023/06/06 06:35:03;;;;;;;18.92;11.82;;;14.20;99.90;;;;;;5045069;28;20393;-32
2023/06/06 06:37:30;;;;;;;18.38;11.75;;;14.40;99.90;;;;;;5054675;28;20112;-32
2023/06/06 06:39:56;;;;;;;17.40;10.60;;;14.40;99.90;;;;;;5054715;28;20036;-32
2023/06/06 06:42:22;;;;;;;15.10;11.35;;;14.50;99.90;;;;;;5055011;28;20044;-32
2023/06/06 06:44:48;;;;;;;17.60;12.10;;;14.60;99.90;;;;;;5046471;28;20063;-31
2023/06/06 06:47:14;;;;;;;16.30;12.32;;;14.70;99.90;;;;;;5045095;28;20044;-32
2023/06/06 06:49:41;;;;;;;16.55;12.07;;;14.90;99.90;;;;;;5040116;28;20101;-32
2023/06/06 06:52:07;;;;;;;16.27;12.02;;;14.90;99.90;;;;;;5054540;28;20094;-32
2023/06/06 06:54:44;;;;;;;16.17;12.27;;;15.00;99.90;;;;;;5051180;28;20055;-31
2023/06/06 06:57:10;;;;;;;14.43;10.45;;;15.10;99.90;;;;;;5054715;28;20055;-33
2023/06/06 06:59:36;;;;;;;15.52;10.52;;;15.20;99.90;;;;;;5039639;28;20044;-32
2023/06/06 07:02:02;;;;;;;17.90;12.50;;;15.30;99.90;;;;;;5051660;28;20520;-32
2023/06/06 07:04:28;;;;;;;18.30;11.40;;;15.50;99.90;;;;;;5054620;28;20497;-32
2023/06/06 07:06:55;;;;;;;17.35;11.85;;;15.60;99.90;;;;;;5053917;28;20032;-32
2023/06/06 07:09:21;;;;;;;15.07;10.30;;;15.70;99.90;;;;;;5048993;28;20036;-33
2023/06/06 07:11:46;;;;;;;11.30;9.35;;;15.80;99.90;;;;;;5054590;28;20081;-32
2023/06/06 07:14:12;;;;;;;12.45;9.80;;;15.90;99.90;;;;;;5034272;28;20391;-32
2023/06/06 07:16:39;;;;;;;13.60;9.32;;;16.10;99.90;;;;;;5060278;28;20041;-32
2023/06/06 07:19:05;;;;;;;14.43;8.63;;;16.20;99.90;;;;;;5035677;28;20032;-32
2023/06/06 07:21:30;;;;;;;10.50;8.57;;;16.20;99.90;;;;;;5044483;28;20400;-32
2023/06/06 07:23:56;;;;;;;11.60;8.25;;;16.20;99.90;;;;;;5053237;28;20040;-32
2023/06/06 07:26:22;;;;;;;12.88;6.95;;;16.40;99.90;;;;;;5023145;28;20039;-32
2023/06/06 07:28:48;;;;;;;10.55;7.20;;;16.50;99.90;;;;;;5050454;28;20448;-31
2023/06/06 07:31:15;;;;;;;9.77;7.40;;;16.70;99.90;;;;;;5054126;28;20036;-32
2023/06/06 07:33:40;;;;;;;12.55;6.35;;;16.80;99.90;;;;;;5054414;28;20043;-32
2023/06/06 07:36:07;;;;;;;12.00;6.43;;;17.00;99.90;;;;;;5054031;28;20486;-32
2023/06/06 07:38:33;;;;;;;8.73;6.00;;;17.20;99.90;;;;;;5053896;28;20485;-32
2023/06/06 07:40:59;;;;;;;11.63;5.65;;;17.30;99.90;;;;;;5051154;28;20048;-32
2023/06/06 07:43:25;;;;;;;8.55;5.50;;;17.30;99.90;;;;;;5066352;28;20116;-32
2023/06/06 07:45:51;;;;;;;10.05;5.55;;;17.40;99.90;;;;;;5051898;28;20100;-32
2023/06/06 07:48:18;;;;;;;9.85;5.93;;;17.40;99.90;;;;;;5040473;28;20114;-32
2023/06/06 07:50:44;;;;;;;8.10;6.45;;;17.40;99.90;;;;;;5053755;28;20493;-33
2023/06/06 07:53:10;;;;;;;10.50;6.40;;;17.60;99.90;;;;;;5054031;28;20043;-33
2023/06/06 07:55:37;;;;;;;7.40;5.35;;;17.70;99.90;;;;;;5054057;28;20505;-33
2023/06/06 07:58:10;;;;;;;9.35;5.53;;;17.70;99.90;;;;;;5053622;28;20036;-32
2023/06/06 08:00:37;;;;;;;11.38;5.75;;;17.90;99.90;;;;;;5052529;28;20047;-33
2023/06/06 08:03:03;;;;;;;10.63;6.80;;;18.00;99.90;;;;;;5052231;28;20121;-33
2023/06/06 08:05:28;;;;;;;11.13;6.40;;;18.10;99.90;;;;;;5043373;28;20068;-33
2023/06/06 08:07:54;;;;;;;9.05;6.07;;;18.30;99.90;;;;;;5053524;28;20501;-33
2023/06/06 08:10:20;;;;;;;11.02;6.70;;;18.50;99.90;;;;;;5036352;28;20043;-33
2023/06/06 08:12:46;;;;;;;9.32;6.68;;;18.70;99.90;;;;;;5053186;28;20051;-33
2023/06/06 08:15:13;;;;;;;9.90;6.53;;;18.90;99.90;;;;;;5053303;28;20552;-33
2023/06/06 08:17:38;;;;;;;11.45;6.47;;;19.00;99.90;;;;;;5053458;28;20032;-33
2023/06/06 08:20:08;;;;;;;9.10;6.38;;;19.00;99.90;;;;;;5053452;28;20040;-34
2023/06/06 08:22:38;;;;;;;12.38;7.30;;;19.10;99.90;;;;;;5053246;28;20040;-34
2023/06/06 08:25:05;;;;;;;10.48;6.80;;;19.20;99.90;;;;;;5053321;28;20033;-33
2023/06/06 08:27:31;;;;;;;8.57;6.53;;;19.30;99.90;;;;;;5050373;28;20040;-34
2023/06/06 08:29:57;;;;;;;13.57;6.53;;;19.40;99.90;;;;;;5053039;28;20043;-34
2023/06/06 08:32:22;;;;;;;11.68;6.57;;;19.50;99.90;;;;;;5051949;28;20093;-33
2023/06/06 08:34:48;;;;;;;13.95;7.35;;;19.70;99.90;;;;;;5053406;28;20112;-33
2023/06/06 08:37:14;;;;;;;11.50;6.90;;;19.80;99.90;;;;;;5053348;28;20032;-32
2023/06/06 08:39:40;;;;;;;16.02;7.68;;;20.00;99.90;;;;;;5052839;28;20037;-33
2023/06/06 08:42:09;;;;;;;11.32;6.95;;;20.10;99.90;;;;;;5036567;28;20123;-33
2023/06/06 08:44:36;;;;;;;10.27;7.88;;;20.30;99.90;;;;;;5053199;28;20060;-34
2023/06/06 08:47:02;;;;;;;12.27;8.05;;;20.40;99.90;;;;;;5051071;28;20541;-33
2023/06/06 08:49:30;;;;;;;11.88;8.35;;;20.50;99.90;;;;;;5044638;28;20167;-33
2023/06/06 08:51:58;;;;;;;10.18;7.85;;;20.70;99.90;;;;;;5052104;28;20033;-33
2023/06/06 08:54:24;;;;;;;13.48;8.55;;;20.70;99.90;;;;;;5045309;28;20043;-33
2023/06/06 08:56:51;;;;;;;9.25;8.02;;;20.90;99.90;;;;;;5046307;28;20115;-33
2023/06/06 08:59:18;;;;;;;10.85;7.90;;;21.00;99.90;;;;;;5056639;28;20277;-34
2023/06/06 09:01:47;;;;;;;9.73;7.68;;;21.20;99.90;;;;;;5056630;28;20490;-33
2023/06/06 09:04:15;;;;;;;13.68;9.13;;;21.30;99.90;;;;;;5053091;28;20120;-32
2023/06/06 09:06:44;;;;;;;7.70;6.90;;;21.40;99.90;;;;;;5056877;28;20032;-33
2023/06/06 09:09:11;;;;;;;11.98;7.82;;;21.60;99.90;;;;;;5047790;28;20078;-33
2023/06/06 09:11:37;;;;;;;12.30;8.07;;;21.80;99.90;;;;;;5056545;28;20143;-34
2023/06/06 09:14:07;;;;;;;13.75;8.02;;;22.00;99.90;;;;;;5056308;28;20037;-33
2023/06/06 09:16:33;;;;;;;10.50;7.30;;;22.20;99.90;;;;;;5050412;28;20037;-32
2023/06/06 09:19:01;;;;;;;7.35;5.57;;;22.30;99.90;;;;;;5051524;28;20060;-33
2023/06/06 09:21:33;;;;;;;7.72;5.60;;;22.40;99.90;;;;;;5056540;28;20040;-32
2023/06/06 09:23:59;;;;;;;11.43;6.10;;;22.20;99.90;;;;;;5054570;28;20436;-32
2023/06/06 09:26:26;;;;;;;7.78;5.47;;;22.40;99.90;;;;;;5045177;28;20516;-32
2023/06/06 09:28:54;;;;;;;7.40;5.68;;;22.50;99.90;;;;;;5056353;28;20116;-33
2023/06/06 09:31:30;;;;;;;8.07;5.35;;;22.40;99.90;;;;;;5045392;28;20496;-33
2023/06/06 09:33:57;;;;;;;10.43;5.68;;;22.60;99.90;;;;;;5053117;28;20458;-33
2023/06/06 09:36:28;;;;;;;8.73;5.05;;;22.60;99.90;;;;;;5054207;28;20029;-32
2023/06/06 09:39:15;;;;;;;8.25;5.35;;;22.90;99.90;;;;;;5049229;28;20025;-34
2023/06/06 09:41:46;;;;;;;6.53;4.38;;;23.00;99.90;;;;;;5056235;28;20029;-33
2023/06/06 09:44:20;;;;;;;7.28;5.57;;;23.10;99.90;;;;;;5056259;28;20106;-30
2023/06/06 09:46:47;;;;;;;11.18;5.72;;;23.50;99.90;;;;;;5056154;28;20102;-31
2023/06/06 09:49:14;;;;;;;7.43;5.20;;;23.60;99.90;;;;;;5039667;28;20121;-31
2023/06/06 09:51:43;;;;;;;8.38;5.00;;;23.70;99.90;;;;;;5056177;28;20037;-30
2023/06/06 09:54:11;;;;;;;7.85;5.45;;;23.90;99.90;;;;;;5056127;28;20036;-30
2023/06/06 09:56:39;;;;;;;8.18;5.43;;;23.80;99.90;;;;;;5050453;28;20033;-30
2023/06/06 09:59:06;;;;;;;7.10;5.00;;;23.80;99.90;;;;;;5055984;28;20047;-30
2023/06/06 10:01:35;;;;;;;8.48;4.88;;;23.90;99.90;;;;;;5056151;28;20531;-31
2023/06/06 10:04:03;;;;;;;7.50;5.32;;;24.00;99.90;;;;;;5055560;28;20043;-31
2023/06/06 10:06:33;;;;;;;6.88;4.68;;;24.20;99.00;;;;;;5055698;28;20120;-31
2023/06/06 10:09:05;;;;;;;6.78;4.40;;;24.20;99.90;;;;;;5055523;28;20044;-32
2023/06/06 10:11:33;;;;;;;7.53;5.00;;;24.50;93.70;;;;;;5055624;28;20123;-31
2023/06/06 10:14:01;;;;;;;8.38;5.38;;;24.70;98.30;;;;;;5049422;28;20028;-31
2023/06/06 10:16:29;;;;;;;8.75;5.50;;;24.80;94.80;;;;;;5056105;28;20060;-32
2023/06/06 10:18:56;;;;;;;7.78;5.00;;;25.20;94.50;;;;;;5056053;28;20048;-32
2023/06/06 10:21:23;;;;;;;7.50;4.82;;;25.40;91.50;;;;;;5051220;28;20390;-32
2023/06/06 10:23:49;;;;;;;6.75;4.85;;;25.60;89.70;;;;;;5052218;28;20095;-32
2023/06/06 10:26:20;;;;;;;7.95;5.00;;;25.70;83.80;;;;;;5035112;28;20045;-33
2023/06/06 10:29:01;;;;;;;6.63;4.97;;;25.60;76.20;;;;;;5047048;28;20385;-33
2023/06/06 10:31:55;;;;;;;8.32;4.85;;;25.40;71.20;;;;;;5055501;28;20063;-33
2023/06/06 10:34:27;;;;;;;6.53;5.10;;;25.20;73.90;;;;;;5041786;28;20048;-31
2023/06/06 10:36:54;;;;;;;8.73;4.78;;;25.40;84.50;;;;;;5055167;28;20033;-32
2023/06/06 10:39:29;;;;;;;5.72;5.13;;;25.80;79.60;;;;;;5055102;28;20462;-33
2023/06/06 10:41:59;;;;;;;7.05;5.20;;;26.00;75.20;;;;;;5037941;28;20036;-32
2023/06/06 10:44:26;;;;;;;6.28;4.63;;;26.20;72.90;;;;;;5037384;28;20040;-32
2023/06/06 10:47:21;;;;;;;8.65;4.60;;;26.40;75.70;;;;;;5055091;28;20134;-33
2023/06/06 10:50:09;;;;;;;6.72;4.65;;;26.60;68.40;;;;;;5037767;28;20041;-32
2023/06/06 10:52:48;;;;;;;7.13;4.97;;;26.80;69.00;;;;;;5052438;28;20025;-33
2023/06/06 10:55:20;;;;;;;6.57;4.75;;;26.90;66.80;;;;;;5037839;28;20033;-32
2023/06/06 10:58:04;;;;;;;8.20;5.10;;;26.80;67.00;;;;;;5035391;28;20451;-32
2023/06/06 11:00:34;;;;;;;7.25;4.47;;;26.90;67.80;;;;;;5035199;28;20051;-32
2023/06/06 11:03:13;;;;;;;7.90;4.85;;;27.10;68.50;;;;;;5044986;28;20039;-32
2023/06/06 11:06:01;;;;;;;7.63;4.75;;;27.10;64.10;;;;;;5040938;28;20131;-33
2023/06/06 11:08:56;;;;;;;6.90;4.90;;;26.90;62.20;;;;;;5054917;28;20049;-33
2023/06/06 11:11:33;;;;;;;7.15;4.50;;;27.00;61.80;;;;;;5034729;28;20116;-32
2023/06/06 11:14:04;;;;;;;5.95;4.13;;;27.10;63.00;;;;;;5034747;28;20037;-32
2023/06/06 11:16:39;;;;;;;7.32;4.65;;;27.20;64.70;;;;;;5034370;28;20401;-31
2023/06/06 11:19:15;;;;;;;8.23;5.32;;;27.50;63.20;;;;;;5034885;28;20072;-32
2023/06/06 11:21:46;;;;;;;9.38;5.38;;;27.30;62.10;;;;;;5041552;28;20037;-33
2023/06/06 11:24:13;;;;;;;5.97;5.05;;;27.40;60.30;;;;;;5045151;28;20044;-34
2023/06/06 11:26:41;;;;;;;6.32;4.60;;;27.30;59.70;;;;;;5054615;28;20040;-33
2023/06/06 11:29:09;;;;;;;7.05;4.63;;;27.60;60.80;;;;;;5054619;28;20043;-35
2023/06/06 11:31:36;;;;;;;6.30;4.75;;;27.60;59.10;;;;;;5047403;28;20037;-32
2023/06/06 11:34:09;;;;;;;7.47;4.88;;;27.60;59.30;;;;;;5047508;28;20363;-32
2023/06/06 11:36:37;;;;;;;6.55;4.18;;;27.80;59.00;;;;;;5054757;28;20523;-32
2023/06/06 11:39:06;;;;;;;7.78;4.85;;;28.00;58.10;;;;;;5054234;28;20119;-33
2023/06/06 11:41:46;;;;;;;4.85;4.07;;;28.10;57.80;;;;;;5054522;28;20499;-33
2023/06/06 11:44:14;;;;;;;8.32;4.82;;;28.30;57.70;;;;;;5054634;28;20040;-33
2023/06/06 11:46:58;;;;;;;7.13;4.72;;;28.20;56.60;;;;;;5054351;28;20033;-33
2023/06/06 11:49:24;;;;;;;6.25;4.50;;;28.50;56.20;;;;;;5037683;28;20076;-32
2023/06/06 11:51:58;;;;;;;5.45;4.78;;;28.60;56.30;;;;;;5056000;28;20037;-32
2023/06/06 11:54:27;;;;;;;5.32;4.50;;;28.50;54.40;;;;;;5053991;28;20040;-34
2023/06/06 11:56:56;;;;;;;8.10;5.38;;;28.60;56.80;;;;;;5051985;28;20040;-34
2023/06/06 11:59:22;;;;;;;5.53;4.47;;;28.80;55.80;;;;;;5048009;28;20365;-33
2023/06/06 12:01:53;;;;;;;6.32;4.30;;;28.50;55.10;;;;;;5046788;28;20036;-34
2023/06/06 12:04:26;;;;;;;7.68;4.90;;;28.80;54.20;;;;;;5046549;28;20044;-34
2023/06/06 12:06:53;;;;;;;6.70;4.63;;;28.50;54.70;;;;;;5051170;28;20037;-33
2023/06/06 12:09:20;;;;;;;6.85;4.75;;;28.30;55.10;;;;;;5043765;28;20045;-34
2023/06/06 12:11:59;;;;;;;7.70;4.70;;;28.70;55.40;;;;;;5047308;28;20037;-34
2023/06/06 12:14:27;;;;;;;5.82;4.72;;;29.00;52.50;;;;;;5040426;28;20179;-33
2023/06/06 12:17:01;;;;;;;7.35;5.07;;;28.90;53.70;;;;;;5054264;28;20051;-33
2023/06/06 12:19:27;;;;;;;6.50;4.40;;;29.20;52.70;;;;;;5043382;28;20040;-33
2023/06/06 12:21:53;;;;;;;6.10;4.50;;;29.20;53.40;;;;;;5048321;28;20043;-33
2023/06/06 12:24:26;;;;;;;11.15;4.97;;;29.40;53.70;;;;;;5052283;28;20170;-34
2023/06/06 12:27:02;;;;;;;9.27;4.88;;;29.60;52.50;;;;;;5052969;28;20043;-34
2023/06/06 12:29:33;;;;;;;5.97;4.40;;;29.50;52.80;;;;;;5053889;28;20048;-34
2023/06/06 12:32:21;;;;;;;6.70;4.85;;;29.50;52.20;;;;;;5049014;28;20063;-34
2023/06/06 12:35:05;;;;;;;7.93;4.50;;;29.50;51.90;;;;;;5048731;28;20032;-34
2023/06/06 12:37:45;;;;;;;5.85;4.35;;;29.50;51.00;;;;;;5049745;28;20057;-33
2023/06/06 12:40:14;;;;;;;7.53;4.47;;;29.10;51.40;;;;;;5052293;28;20153;-33
2023/06/06 12:42:41;;;;;;;7.22;4.30;;;29.20;51.80;;;;;;5058215;28;20045;-34
2023/06/06 12:45:08;;;;;;;7.40;4.57;;;29.70;51.40;;;;;;5069768;28;20040;-33